Gladwin, Iowa
Current Conditions -  °F | °C
As of 6:35 PM on Monday 24 Nov 2014 (Local Time) from KAWG Reporting Station
Overcast Overcast  
Wind Chill: 16°   Ceiling: 2600
Heat Index: 28°   Visibility: 10mi
Dew Point: 25°   Wind: 17mph
Humidity: 86%   Direction: 280°W
Pressure: 29.81"   Gusts: 26mph
Location:  41.2636°N, 91.4145°W
Report Text: KAWG 250035Z AUTO 28015G23KT 10SM OVC026 M02/M04 A2981 RMK AO2
Loading
Personal Weather Stations






























Interactive Weather Map New forecast layout! Learn more

10-Day Weather Forecast

Advertisements
Track Severe Weather on mobile